Time;durP1;ratioP1;P1;durP2;ratioP2;P2;SDS_P1;SDS_P2;PMS_P1;PMS_P2;Temp;Humidity;BMP_temperature;BMP_pressure;BME280_temperature;BME280_humidity;BME280_pressure;Samples;Min_cycle;Max_cycle;Signal;HPM_P1;HPM_P2
2022/12/09 03:54:46;;;;;;;15.85;10.32;;;;;;;-146.14;100.00;121243.23;1786822;79;21470;-70
2022/12/09 04:55:07;;;;;;;20.60;12.15;;;;;;;-1.85;100.00;121243.23;1753803;81;21134;-72
2022/12/09 05:07:53;;;;;;;31.25;17.10;;;;;;;-146.14;100.00;121243.23;1782178;80;37385;-71
2022/12/09 07:51:25;;;;;;;30.88;18.48;;;;;;;-1.85;100.00;98960.31;1782341;80;20891;-72
2022/12/09 11:41:07;;;;;;;28.00;17.27;;;;;;;-1.85;100.00;98960.31;1782487;80;20832;-68
2022/12/09 11:44:28;;;;;;;15.78;10.45;;;;;;;-1.85;100.00;102704.07;1752320;81;20837;-68
2022/12/09 11:47:10;;;;;;;18.95;13.05;;;;;;;-1.85;100.00;98960.31;1768652;80;22358;-67
2022/12/09 11:50:23;;;;;;;23.25;15.18;;;;;;;-1.85;100.00;98960.31;1787064;80;21509;-68
2022/12/09 12:03:51;;;;;;;23.57;14.85;;;;;;;-146.14;100.00;121243.23;1785635;80;20977;-68
2022/12/09 16:11:05;;;;;;;109.10;52.35;;;;;;;;;;1843070;77;25759;-68
2022/12/09 16:13:32;;;;;;;119.28;57.00;;;;;;;;;;1820404;78;21453;-70
2022/12/09 16:16:00;;;;;;;94.97;47.78;;;;;;;;;;1820138;78;21160;-71
2022/12/09 16:18:32;;;;;;;100.47;50.77;;;;;;;;;;1820258;78;20980;-70
2022/12/09 16:21:03;;;;;;;103.20;52.85;;;;;;;;;;1812593;78;20876;-70
2022/12/09 16:23:31;;;;;;;111.40;53.95;;;;;;;;;;1819881;78;20948;-71
2022/12/09 16:25:59;;;;;;;101.62;54.65;;;;;;;;;;1820262;78;21469;-69
2022/12/09 16:28:27;;;;;;;102.82;50.75;;;;;;;;;;1819860;78;21085;-70
2022/12/09 16:31:03;;;;;;;91.25;49.48;;;;;;;;;;1786813;78;20963;-70
2022/12/09 16:33:32;;;;;;;82.45;44.83;;;;;;;;;;1820733;78;20833;-69
2022/12/09 16:36:04;;;;;;;83.33;44.67;;;;;;;;;;1821973;78;21327;-70
2022/12/09 16:38:33;;;;;;;71.72;37.93;;;;;;;;;;1822142;78;20865;-71
2022/12/09 16:41:03;;;;;;;84.05;44.15;;;;;;;;;;1821625;78;20893;-69
2022/12/09 16:43:29;;;;;;;80.50;42.13;;;;;;;;;;1822120;78;21342;-71
2022/12/09 16:46:00;;;;;;;76.37;41.60;;;;;;;;;;1822315;78;21323;-71
2022/12/09 16:48:28;;;;;;;77.05;42.62;;;;;;;;;;1817000;78;21434;-69
2022/12/09 16:50:58;;;;;;;97.57;43.52;;;;;;;;;;1822634;78;21307;-69
2022/12/09 16:53:27;;;;;;;99.22;48.05;;;;;;;;;;1822404;78;21283;-70
2022/12/09 16:55:58;;;;;;;95.97;50.65;;;;;;;;;;1822034;78;20857;-70
2022/12/09 16:58:27;;;;;;;101.82;51.23;;;;;;;;;;1822031;78;20873;-71
2022/12/09 17:00:53;;;;;;;94.45;48.98;;;;;;;;;;1822040;78;20829;-71
2022/12/09 17:03:32;;;;;;;98.70;54.60;;;;;;;;;;1821044;78;20869;-71
2022/12/09 17:05:58;;;;;;;;;;;;;;;;;;1824990;78;21343;-70
2022/12/09 17:08:25;;;;;;;88.55;49.83;;;;;;;;;;1821642;78;20093;-71
2022/12/09 17:10:51;;;;;;;94.60;52.27;;;;;;;;;;1822018;78;21290;-70
2022/12/09 17:13:18;;;;;;;88.33;52.75;;;;;;;;;;1821607;78;20890;-70
2022/12/09 17:15:45;;;;;;;92.88;59.80;;;;;;;;;;1821009;78;21283;-70
2022/12/09 17:18:12;;;;;;;79.35;46.63;;;;;;;;;;1822060;78;20952;-70
2022/12/09 17:20:39;;;;;;;76.55;42.03;;;;;;;;;;1821891;78;21299;-69
2022/12/09 17:23:05;;;;;;;113.35;72.53;;;;;;;;;;1788142;79;20875;-71
2022/12/09 17:25:32;;;;;;;95.32;52.67;;;;;;;;;;1821615;78;21371;-70
2022/12/09 17:28:02;;;;;;;65.15;37.00;;;;;;;;;;1821592;78;21007;-70
2022/12/09 17:30:29;;;;;;;62.33;34.40;;;;;;;;;;1821670;79;20854;-70
2022/12/09 17:32:58;;;;;;;108.20;60.65;;;;;;;;;;1821416;79;20956;-70
2022/12/09 17:35:24;;;;;;;111.28;66.87;;;;;;;;;;1821435;78;20999;-69
2022/12/09 17:37:51;;;;;;;90.03;51.00;;;;;;;;;;1821571;78;21337;-69
2022/12/09 17:40:17;;;;;;;81.60;46.25;;;;;;;;;;1821428;78;20865;-69
2022/12/09 17:42:44;;;;;;;64.95;34.85;;;;;;;;;;1820930;78;20866;-69
2022/12/09 17:45:11;;;;;;;94.32;51.65;;;;;;;;;;1820870;79;20940;-70
2022/12/09 17:47:37;;;;;;;197.80;89.52;;;;;;;;;;1821495;78;21027;-69
2022/12/09 17:50:05;;;;;;;395.03;206.70;;;;;;;;;;1821523;78;20908;-70
2022/12/09 17:52:32;;;;;;;156.95;105.92;;;;;;;;;;1821791;79;20893;-70
2022/12/09 17:54:59;;;;;;;166.37;113.07;;;;;;;;;;1821592;79;20861;-70
2022/12/09 17:57:26;;;;;;;115.32;71.40;;;;;;;;;;1821511;78;20868;-69
2022/12/09 17:59:52;;;;;;;92.97;52.73;;;;;;;;;;1821528;79;20948;-69
2022/12/09 18:02:18;;;;;;;108.55;72.78;;;;;;;;;;1821572;78;20920;-68
2022/12/09 18:04:45;;;;;;;95.65;59.55;;;;;;;;;;1821545;78;21335;-68
2022/12/09 18:07:11;;;;;;;86.57;53.65;;;;;;;;;;1821563;78;20865;-69
2022/12/09 18:09:38;;;;;;;168.65;120.53;;;;;;;;;;1821620;79;21393;-70
2022/12/09 18:12:05;;;;;;;149.05;103.60;;;;;;;;;;1819909;78;20913;-68
2022/12/09 18:14:33;;;;;;;100.40;63.55;;;;;;;;;;1819757;78;21508;-69
2022/12/09 18:17:00;;;;;;;124.00;84.85;;;;;;;;;;1819437;78;20908;-70
2022/12/09 18:19:27;;;;;;;115.37;72.78;;;;;;;;;;1819123;79;21017;-69
2022/12/09 18:21:54;;;;;;;75.92;45.50;;;;;;;;;;1819132;79;20905;-70
2022/12/09 18:24:20;;;;;;;82.40;51.13;;;;;;;;;;1819266;79;20913;-70
2022/12/09 18:26:47;;;;;;;84.45;53.80;;;;;;;;;;1820929;79;21078;-69
2022/12/09 18:29:14;;;;;;;95.55;60.67;;;;;;;;;;1821500;79;20916;-70
2022/12/09 18:31:44;;;;;;;72.58;40.90;;;;;;;;;;1788220;79;20909;-67
2022/12/09 18:34:09;;;;;;;61.90;36.17;;;;;;;;;;1821356;78;20869;-68
2022/12/09 18:36:36;;;;;;;60.10;35.48;;;;;;;;;;1821556;79;20877;-68
2022/12/09 18:39:03;;;;;;;85.07;54.33;;;;;;;;;;1821513;78;20952;-68
2022/12/09 18:41:30;;;;;;;58.63;34.92;;;;;;;;;;1821497;79;20984;-69
2022/12/09 18:43:58;;;;;;;50.85;29.48;;;;;;;;;;1821511;79;20869;-68
2022/12/09 18:46:29;;;;;;;54.77;30.80;;;;;;;;;;1821590;79;20834;-69
2022/12/09 18:48:58;;;;;;;56.05;32.00;;;;;;;;;;1819629;79;21335;-69
2022/12/09 18:51:24;;;;;;;63.75;34.03;;;;;;;;;;1820027;78;20866;-71
2022/12/09 18:53:52;;;;;;;59.18;34.38;;;;;;;;;;1821431;78;21327;-70
2022/12/09 18:56:18;;;;;;;63.52;32.05;;;;;;;;;;1820796;78;21032;-70
2022/12/09 18:58:44;;;;;;;64.00;31.35;;;;;;;;;;1819615;78;20941;-69
2022/12/09 19:01:16;;;;;;;49.13;29.65;;;;;;;;;;1819364;79;21513;-71
2022/12/09 19:03:43;;;;;;;49.95;29.85;;;;;;;;;;1819595;78;20897;-71
2022/12/09 19:06:23;;;;;;;50.10;29.82;;;;;;;;;;1819132;78;20933;-70
2022/12/09 19:08:54;;;;;;;68.92;37.67;;;;;;;;;;1819480;78;21715;-71
2022/12/09 19:11:21;;;;;;;75.15;40.48;;;;;;;;;;1819136;79;20834;-69
2022/12/09 19:13:49;;;;;;;67.15;37.30;;;;;;;;;;1819778;78;20829;-71
2022/12/09 19:16:15;;;;;;;64.42;34.43;;;;;;;;;;1819051;79;20972;-70
2022/12/09 19:18:41;;;;;;;61.08;34.88;;;;;;;;;;1819343;79;21466;-70
2022/12/09 19:21:10;;;;;;;61.85;33.40;;;;;;;;;;1819242;78;21081;-70
2022/12/09 19:23:40;;;;;;;72.58;37.58;;;;;;;;;;1819655;79;20948;-71
2022/12/09 19:26:13;;;;;;;64.03;34.40;;;;;;;;;;1821538;78;20905;-67
2022/12/09 19:28:45;;;;;;;70.47;35.98;;;;;;;;;;1820945;79;20884;-68
2022/12/09 19:31:18;;;;;;;62.73;33.92;;;;;;;;;;1821640;78;20864;-69
2022/12/09 19:33:45;;;;;;;58.33;31.77;;;;;;;;;;1820028;79;20884;-68
2022/12/09 19:36:11;;;;;;;64.15;34.60;;;;;;;;;;1819188;79;21420;-70
2022/12/09 19:38:38;;;;;;;73.95;39.55;;;;;;;;;;1819252;78;20877;-69
2022/12/09 19:41:05;;;;;;;69.17;36.03;;;;;;;;;;1819295;79;20952;-69
2022/12/09 19:43:33;;;;;;;65.22;32.67;;;;;;;;;;1819125;79;20944;-70
2022/12/09 19:46:04;;;;;;;67.37;34.85;;;;;;;;;;1819402;78;21379;-67
2022/12/09 19:48:35;;;;;;;60.95;33.67;;;;;;;;;;1818860;79;20995;-70
2022/12/09 19:51:03;;;;;;;75.03;38.78;;;;;;;;;;1819519;78;20900;-70
2022/12/09 19:53:30;;;;;;;70.52;37.98;;;;;;;;;;1819357;79;23603;-70
2022/12/09 19:56:00;;;;;;;72.53;35.83;;;;;;;;;;1819353;79;20865;-70
2022/12/09 19:58:27;;;;;;;72.20;36.58;;;;;;;;;;1819177;79;22480;-70
2022/12/09 20:00:53;;;;;;;57.25;31.35;;;;;;;;;;1819435;79;21350;-69
2022/12/09 20:03:20;;;;;;;66.22;36.25;;;;;;;;;;1819701;79;20843;-69
2022/12/09 20:05:51;;;;;;;64.05;34.25;;;;;;;;;;1819244;78;21031;-69
2022/12/09 20:08:17;;;;;;;62.08;34.13;;;;;;;;;;1821449;79;20873;-70
2022/12/09 20:10:45;;;;;;;70.95;38.10;;;;;;;;;;1821239;79;21472;-70
2022/12/09 20:13:14;;;;;;;72.53;36.00;;;;;;;;;;1821403;79;21035;-69
2022/12/09 20:15:45;;;;;;;61.35;33.45;;;;;;;;;;1820622;79;21035;-69
2022/12/09 20:18:13;;;;;;;62.15;32.08;;;;;;;;;;1821065;79;20992;-70
2022/12/09 20:20:38;;;;;;;65.42;34.15;;;;;;;;;;1821581;79;20899;-68
2022/12/09 20:23:04;;;;;;;65.32;32.67;;;;;;;;;;1821467;79;21362;-69
2022/12/09 20:25:34;;;;;;;66.17;34.33;;;;;;;;;;1821409;79;20913;-70
2022/12/09 20:28:01;;;;;;;60.73;32.48;;;;;;;;;;1820886;79;20869;-70
2022/12/09 20:30:28;;;;;;;58.63;30.55;;;;;;;;;;1820154;78;20913;-69
2022/12/09 20:32:55;;;;;;;59.03;31.35;;;;;;;;;;1819087;79;20987;-69
2022/12/09 20:35:22;;;;;;;61.08;32.38;;;;;;;;;;1821238;78;21831;-70
2022/12/09 20:37:48;;;;;;;61.00;30.90;;;;;;;;;;1819119;78;20904;-69
2022/12/09 20:40:15;;;;;;;53.10;28.12;;;;;;;;;;1819308;78;21391;-69
2022/12/09 20:42:41;;;;;;;59.03;31.97;;;;;;;;;;1819247;78;20889;-69
2022/12/09 20:45:10;;;;;;;54.83;29.00;;;;;;;;;;1819216;79;20948;-70
2022/12/09 20:47:36;;;;;;;45.20;27.98;;;;;;;;;;1819735;79;20983;-71
2022/12/09 20:50:04;;;;;;;63.35;30.62;;;;;;;;;;1819807;79;21474;-70
2022/12/09 20:52:31;;;;;;;60.35;31.62;;;;;;;;;;1819322;79;26420;-69
2022/12/09 20:54:57;;;;;;;60.78;30.68;;;;;;;;;;1819017;78;21431;-70
2022/12/09 20:57:24;;;;;;;52.65;29.02;;;;;;;;;;1819411;78;21498;-70
2022/12/09 20:59:50;;;;;;;47.85;27.45;;;;;;;;;;1819338;79;21657;-70
2022/12/09 21:02:17;;;;;;;54.05;29.12;;;;;;;;;;1819318;79;21358;-69
2022/12/09 21:04:44;;;;;;;53.55;28.52;;;;;;;;;;1819439;79;20857;-71
2022/12/09 21:07:11;;;;;;;57.30;30.40;;;;;;;;;;1819361;78;20916;-69
2022/12/09 21:09:38;;;;;;;57.30;29.65;;;;;;;;;;1819406;79;20841;-70
2022/12/09 21:12:05;;;;;;;51.88;28.55;;;;;;;;;;1819314;79;21755;-71
2022/12/09 21:14:34;;;;;;;48.28;27.58;;;;;;;;;;1785738;79;21105;-70
2022/12/09 21:17:00;;;;;;;56.23;30.43;;;;;;;;;;1819513;78;23364;-69
2022/12/09 21:19:29;;;;;;;49.48;26.70;;;;;;;;;;1819410;79;21391;-69
2022/12/09 21:21:55;;;;;;;57.05;29.92;;;;;;;;;;1786374;79;20920;-70
2022/12/09 21:24:23;;;;;;;57.93;33.08;;;;;;;;;;1819199;79;21021;-69
2022/12/09 21:26:52;;;;;;;51.48;29.00;;;;;;;;;;1819443;78;20995;-71
2022/12/09 21:29:18;;;;;;;57.30;31.80;;;;;;;;;;1819371;79;20964;-70
2022/12/09 21:31:47;;;;;;;53.63;28.05;;;;;;;;;;1819304;79;21071;-69
2022/12/09 21:34:13;;;;;;;51.92;29.92;;;;;;;;;;1819565;79;21016;-69
2022/12/09 21:36:41;;;;;;;58.00;32.25;;;;;;;;;;1819356;79;21199;-68
2022/12/09 21:39:08;;;;;;;57.35;32.25;;;;;;;;;;1819546;78;20857;-70
2022/12/09 21:41:35;;;;;;;65.47;34.00;;;;;;;;;;1819416;79;20905;-71
2022/12/09 21:44:03;;;;;;;62.20;31.93;;;;;;;;;;1819349;78;20933;-69
2022/12/09 21:46:31;;;;;;;65.15;31.65;;;;;;;;;;1819845;78;21085;-70
2022/12/09 21:48:58;;;;;;;68.60;32.98;;;;;;;;;;1819648;78;20986;-69
2022/12/09 21:51:25;;;;;;;65.25;34.75;;;;;;;;;;1819280;79;20873;-70
2022/12/09 21:53:52;;;;;;;66.90;36.63;;;;;;;;;;1819327;79;20928;-69
2022/12/09 21:56:20;;;;;;;60.03;31.20;;;;;;;;;;1819380;78;20885;-69
2022/12/09 21:58:48;;;;;;;65.30;31.62;;;;;;;;;;1819374;79;21521;-70
2022/12/09 22:01:19;;;;;;;63.50;32.95;;;;;;;;;;1819460;78;21494;-70
2022/12/09 22:03:46;;;;;;;60.33;33.28;;;;;;;;;;1819592;78;20995;-70
2022/12/09 22:06:12;;;;;;;64.37;32.65;;;;;;;;;;1819185;79;20912;-71
2022/12/09 22:08:40;;;;;;;67.67;31.33;;;;;;;;;;1819195;79;20881;-70
2022/12/09 22:11:09;;;;;;;57.80;31.52;;;;;;;;;;1819318;78;20909;-69
2022/12/09 22:13:36;;;;;;;63.40;31.77;;;;;;;;;;1818742;79;21682;-70
2022/12/09 22:16:08;;;;;;;58.92;31.02;;;;;;;;;;1819206;79;20973;-70
2022/12/09 22:18:35;;;;;;;60.88;32.48;;;;;;;;;;1818696;79;20845;-69
2022/12/09 22:21:04;;;;;;;54.85;27.75;;;;;;;;;;1819374;78;20857;-69
2022/12/09 22:23:31;;;;;;;66.75;31.05;;;;;;;;;;1819377;79;20908;-70
2022/12/09 22:25:57;;;;;;;68.28;32.83;;;;;;;;;;1819374;79;21813;-71
2022/12/09 22:28:23;;;;;;;65.03;31.30;;;;;;;;;;1819088;79;21019;-70
2022/12/09 22:30:50;;;;;;;60.23;30.25;;;;;;;;;;1819261;78;20905;-69
2022/12/09 22:33:17;;;;;;;65.25;29.80;;;;;;;;;;1819159;79;20887;-70
2022/12/09 22:35:43;;;;;;;60.92;28.12;;;;;;;;;;1819421;79;20876;-69
2022/12/09 22:38:11;;;;;;;64.37;29.67;;;;;;;;;;1819307;78;20937;-69
2022/12/09 22:40:38;;;;;;;55.35;24.05;;;;;;;;;;1819211;79;20944;-70
2022/12/09 22:43:05;;;;;;;59.88;29.82;;;;;;;;;;1819376;79;20885;-69
2022/12/09 22:45:33;;;;;;;55.60;25.02;;;;;;;;;;1819191;78;20889;-70
2022/12/09 22:47:59;;;;;;;57.62;27.77;;;;;;;;;;1786172;79;21434;-69
2022/12/09 22:50:26;;;;;;;52.10;25.82;;;;;;;;;;1819287;79;21035;-69
2022/12/09 22:52:52;;;;;;;45.08;22.60;;;;;;;;;;1819111;78;20983;-69
2022/12/09 22:55:19;;;;;;;47.40;22.90;;;;;;;;;;1819220;79;20901;-69
2022/12/09 22:57:45;;;;;;;45.08;22.07;;;;;;;;;;1819363;78;20924;-69
2022/12/09 23:00:13;;;;;;;50.00;23.95;;;;;;;;;;1819169;79;20900;-70
2022/12/09 23:02:40;;;;;;;40.50;21.68;;;;;;;;;;1819688;78;21039;-70
2022/12/09 23:05:07;;;;;;;48.42;25.40;;;;;;;;;;1819135;79;20991;-69
2022/12/09 23:07:34;;;;;;;48.33;23.27;;;;;;;;;;1785794;79;21023;-69
2022/12/09 23:10:01;;;;;;;48.87;24.30;;;;;;;;;;1819106;78;20912;-70
2022/12/09 23:12:27;;;;;;;38.78;21.15;;;;;;;;;;1819377;78;21466;-69
2022/12/09 23:14:54;;;;;;;32.73;19.02;;;;;;;;;;1819240;78;21031;-70
2022/12/09 23:17:21;;;;;;;52.17;19.75;;;;;;;;;;1819376;79;20975;-70
2022/12/09 23:19:47;;;;;;;36.93;19.20;;;;;;;;;;1819247;79;21034;-69
2022/12/09 23:22:13;;;;;;;40.80;22.15;;;;;;;;;;1819225;78;21490;-70
2022/12/09 23:24:40;;;;;;;39.65;22.02;;;;;;;;;;1819115;79;21367;-69
2022/12/09 23:27:07;;;;;;;48.38;25.02;;;;;;;;;;1819161;79;21029;-69
2022/12/09 23:29:33;;;;;;;45.70;23.45;;;;;;;;;;1819153;79;20956;-69
2022/12/09 23:32:00;;;;;;;46.02;25.05;;;;;;;;;;1819420;79;21430;-69
2022/12/09 23:34:26;;;;;;;53.15;26.10;;;;;;;;;;1819215;79;20972;-69
2022/12/09 23:36:52;;;;;;;43.10;23.75;;;;;;;;;;1819294;79;21413;-69
2022/12/09 23:39:19;;;;;;;39.03;21.02;;;;;;;;;;1819249;78;20987;-70
2022/12/09 23:41:45;;;;;;;35.48;20.12;;;;;;;;;;1819051;79;20984;-70
2022/12/09 23:44:15;;;;;;;35.20;19.23;;;;;;;;;;1819538;78;21438;-70
2022/12/09 23:46:42;;;;;;;25.60;14.07;;;;;;;;;;1819396;78;20928;-70
2022/12/09 23:49:08;;;;;;;30.50;18.00;;;;;;;;;;1819337;79;20853;-69
2022/12/09 23:51:37;;;;;;;40.25;23.10;;;;;;;;;;1819221;79;21028;-70
2022/12/09 23:54:04;;;;;;;;;;;;;;;;;;1822110;78;21447;-69
2022/12/09 23:56:32;;;;;;;29.70;16.42;;;;;;;;;;1819202;79;20086;-69
2022/12/09 23:59:02;;;;;;;39.20;19.27;;;;;;;;;;1819451;79;20929;-70
